Time;durP1;ratioP1;P1;durP2;ratioP2;P2;SDS_P1;SDS_P2;PMS_P1;PMS_P2;Temp;Humidity;BMP_temperature;BMP_pressure;BME280_temperature;BME280_humidity;BME280_pressure;Samples;Min_cycle;Max_cycle;Signal;HPM_P1;HPM_P2
2022/02/12 00:00:39;;;;;;;1.52;0.70;;;;;;;2.04;60.12;98921.69;5113224;28;20154;-57
2022/02/12 00:03:04;;;;;;;4.15;1.10;;;;;;;2.07;60.32;98925.03;5098272;27;20035;-56
2022/02/12 00:05:30;;;;;;;5.03;1.00;;;;;;;2.07;59.97;98921.63;5135314;27;20425;-54
2022/02/12 00:07:57;;;;;;;2.90;0.77;;;;;;;2.10;60.09;98927.56;5116791;27;20425;-54
2022/02/12 00:10:24;;;;;;;5.30;1.20;;;;;;;2.09;60.06;98930.97;5115847;27;20046;-55
2022/02/12 00:12:50;;;;;;;1.83;0.70;;;;;;;2.10;60.10;98926.69;5135466;27;20039;-57
2022/02/12 00:15:16;;;;;;;2.03;0.60;;;;;;;2.06;60.49;98928.47;5115966;27;20108;-56
2022/02/12 00:17:43;;;;;;;4.90;1.00;;;;;;;2.07;60.47;98935.28;5133765;27;20032;-55
2022/02/12 00:20:09;;;;;;;2.63;0.50;;;;;;;2.01;60.35;98930.25;5116504;27;20463;-54
2022/02/12 00:22:35;;;;;;;4.88;0.98;;;;;;;2.04;60.59;98922.50;5133453;27;20426;-56
2022/02/12 00:25:01;;;;;;;1.35;0.70;;;;;;;2.10;60.61;98929.25;5134741;27;20043;-57
2022/02/12 00:27:27;;;;;;;2.63;0.68;;;;;;;2.06;60.42;98932.75;5116096;27;20564;-55
2022/02/12 00:29:52;;;;;;;3.25;0.73;;;;;;;2.00;60.73;98927.69;5134976;27;20035;-56
2022/02/12 00:32:18;;;;;;;1.92;0.52;;;;;;;1.99;60.97;98926.00;5099413;27;20414;-56
2022/02/12 00:34:44;;;;;;;5.28;1.10;;;;;;;1.85;60.91;98902.25;5134490;27;20046;-57
2022/02/12 00:37:09;;;;;;;3.08;1.02;;;;;;;1.96;60.76;98926.88;5134640;27;20054;-57
2022/02/12 00:39:35;;;;;;;5.60;1.10;;;;;;;1.97;61.22;98926.03;5132036;27;20043;-57
2022/02/12 00:42:01;;;;;;;1.27;0.60;;;;;;;1.96;60.79;98919.19;5134802;27;20039;-57
2022/02/12 00:44:27;;;;;;;3.53;1.08;;;;;;;1.97;60.87;98930.31;5116581;27;20039;-56
2022/02/12 00:46:53;;;;;;;2.63;1.00;;;;;;;1.92;61.50;98927.81;5134620;27;20430;-56
2022/02/12 00:49:19;;;;;;;2.85;0.68;;;;;;;1.84;61.34;98921.91;5134333;27;20035;-58
2022/02/12 00:51:45;;;;;;;4.13;1.20;;;;;;;1.90;61.65;98926.97;5116139;27;20043;-59
2022/02/12 00:54:10;;;;;;;8.38;1.70;;;;;;;1.89;61.70;98921.84;5115186;27;20049;-57
2022/02/12 00:56:36;;;;;;;2.85;1.10;;;;;;;1.85;61.55;98927.88;5115848;27;20054;-55
2022/02/12 00:59:03;;;;;;;2.83;0.82;;;;;;;1.77;61.63;98916.88;5116162;27;20100;-58
2022/02/12 01:01:30;;;;;;;5.20;1.10;;;;;;;1.84;61.71;98927.03;5095494;28;20515;-55
2022/02/12 01:03:57;;;;;;;1.92;0.70;;;;;;;1.68;61.91;98910.97;5127937;27;20047;-57
2022/02/12 01:06:22;;;;;;;2.67;1.17;;;;;;;1.76;61.84;98936.53;5134401;27;20103;-56
2022/02/12 01:08:48;;;;;;;3.83;1.00;;;;;;;1.58;61.69;98901.69;5094348;28;20028;-59
2022/02/12 01:11:16;;;;;;;3.00;1.10;;;;;;;1.79;61.86;98938.19;5112246;28;20036;-59
2022/02/12 01:13:42;;;;;;;1.88;0.82;;;;;;;1.73;61.70;98917.78;5114801;28;20516;-57
2022/02/12 01:16:07;;;;;;;2.60;0.60;;;;;;;1.81;61.67;98936.47;5132940;27;20058;-58
2022/02/12 01:18:33;;;;;;;3.15;1.02;;;;;;;1.71;61.62;98922.91;5132519;27;20050;-58
2022/02/12 01:21:00;;;;;;;5.72;1.10;;;;;;;1.80;61.89;98935.63;5115658;27;20039;-57
2022/02/12 01:23:25;;;;;;;3.13;1.10;;;;;;;1.79;61.86;98933.91;5133855;27;20099;-56
2022/02/12 01:25:51;;;;;;;6.93;1.00;;;;;;;1.82;61.81;98939.03;5133317;27;20039;-58
2022/02/12 01:28:21;;;;;;;5.82;1.10;;;;;;;1.85;62.04;98946.66;5133959;27;20035;-55
2022/02/12 01:30:47;;;;;;;;;;;;;;;1.86;61.92;98940.69;5134411;27;20100;-57
2022/02/12 01:33:14;;;;;;;2.55;0.70;;;;;;;1.80;62.23;98943.31;5133568;27;20408;-56
2022/02/12 01:35:40;;;;;;;2.67;0.88;;;;;;;1.78;62.00;98936.50;5095138;28;20499;-56
2022/02/12 01:38:05;;;;;;;3.97;1.02;;;;;;;1.80;62.00;98939.88;5094931;28;20046;-54
2022/02/12 01:40:31;;;;;;;3.58;0.80;;;;;;;1.75;62.30;98947.63;5133128;27;20066;-59
2022/02/12 01:43:01;;;;;;;1.90;0.80;;;;;;;1.64;62.26;98939.22;5115200;27;20051;-57
2022/02/12 01:45:27;;;;;;;3.30;1.25;;;;;;;1.68;62.14;98946.00;5133544;27;20054;-55
2022/02/12 01:47:54;;;;;;;5.18;1.30;;;;;;;1.63;62.57;98934.94;5133303;27;20031;-57
2022/02/12 01:50:20;;;;;;;6.75;1.00;;;;;;;1.77;61.98;98951.03;5130845;27;20039;-56
2022/02/12 01:52:47;;;;;;;2.65;1.00;;;;;;;1.82;62.64;98939.03;5133427;27;20039;-56
2022/02/12 01:55:13;;;;;;;4.75;1.23;;;;;;;1.82;62.74;98943.28;5114948;27;20043;-55
2022/02/12 01:57:39;;;;;;;3.17;1.20;;;;;;;1.77;62.60;98939.94;5099525;28;20040;-58
2022/02/12 02:00:08;;;;;;;4.85;1.13;;;;;;;1.77;63.10;98945.06;5112611;28;20052;-55
2022/02/12 02:02:38;;;;;;;6.00;1.52;;;;;;;1.79;63.22;98946.72;5130446;27;20532;-58
2022/02/12 02:05:13;;;;;;;3.38;0.80;;;;;;;1.79;62.79;98953.56;5131545;27;20042;-57
2022/02/12 02:07:41;;;;;;;5.40;1.10;;;;;;;1.78;63.40;98962.13;5113193;27;20028;-57
2022/02/12 02:10:13;;;;;;;3.42;0.90;;;;;;;1.69;63.81;98956.22;5132448;27;20039;-56
2022/02/12 02:12:39;;;;;;;2.25;0.82;;;;;;;1.75;64.05;98964.72;5114803;27;20425;-56
2022/02/12 02:15:06;;;;;;;3.33;0.93;;;;;;;1.74;64.11;98961.31;5133249;27;20122;-57
2022/02/12 02:17:32;;;;;;;3.15;0.90;;;;;;;1.71;64.90;98961.34;5131703;27;20130;-55
2022/02/12 02:19:59;;;;;;;2.88;0.90;;;;;;;1.63;65.65;98958.84;5132632;27;20043;-56
2022/02/12 02:22:29;;;;;;;2.63;0.80;;;;;;;1.58;66.83;98968.28;5131120;27;20046;-57
2022/02/12 02:24:55;;;;;;;3.25;0.68;;;;;;;1.37;67.02;98945.44;5132382;27;20052;-58
2022/02/12 02:27:21;;;;;;;3.95;1.15;;;;;;;1.49;67.24;98964.97;5132790;27;20042;-59
2022/02/12 02:29:47;;;;;;;0.88;0.50;;;;;;;1.51;67.63;98963.25;5132765;27;20045;-57
2022/02/12 02:32:14;;;;;;;4.13;1.00;;;;;;;1.42;67.67;98955.66;5113858;27;20506;-57
2022/02/12 02:34:49;;;;;;;2.53;0.80;;;;;;;1.53;67.62;98967.50;5132644;27;20049;-57
2022/02/12 02:37:15;;;;;;;3.42;0.82;;;;;;;1.49;67.67;98959.84;5129541;27;20122;-58
2022/02/12 02:39:41;;;;;;;3.92;1.10;;;;;;;1.63;67.80;98984.47;5114071;27;20137;-56
2022/02/12 02:42:07;;;;;;;2.30;0.95;;;;;;;1.65;67.52;98980.19;5132667;27;20035;-57
2022/02/12 02:44:33;;;;;;;2.60;0.80;;;;;;;1.67;68.09;98983.56;5132356;27;20035;-57
2022/02/12 02:46:59;;;;;;;3.67;0.90;;;;;;;1.64;68.74;98982.75;5132106;27;20086;-54
2022/02/12 02:49:24;;;;;;;3.42;1.20;;;;;;;1.63;68.96;98983.63;5131907;27;20391;-56
2022/02/12 02:57:18;;;;;;;5.28;0.90;;;;;;;1.75;68.54;98993.75;5116243;27;20130;-55
2022/02/12 02:59:44;;;;;;;2.13;0.80;;;;;;;1.77;68.32;98999.72;5131792;27;20062;-56
2022/02/12 03:02:10;;;;;;;2.72;1.23;;;;;;;1.69;68.12;98999.78;5131945;27;20514;-56
2022/02/12 03:04:36;;;;;;;2.25;0.60;;;;;;;1.63;68.76;99001.53;5113631;27;20564;-59
2022/02/12 03:07:02;;;;;;;2.83;0.90;;;;;;;1.57;69.31;98999.06;5131685;27;20050;-55
2022/02/12 03:09:27;;;;;;;5.10;0.90;;;;;;;1.53;69.38;98984.56;5113534;27;20062;-58
2022/02/12 03:11:53;;;;;;;5.95;1.23;;;;;;;1.57;69.67;98988.81;5113715;27;20051;-59
2022/02/12 03:14:19;;;;;;;4.20;1.00;;;;;;;1.69;70.08;99010.03;5113813;27;20095;-58
2022/02/12 03:16:45;;;;;;;3.33;1.23;;;;;;;1.66;70.86;99014.34;5131597;27;20050;-57
2022/02/12 03:19:11;;;;;;;3.22;1.00;;;;;;;1.63;71.49;99007.53;5131800;27;20035;-56
2022/02/12 03:21:37;;;;;;;5.28;1.33;;;;;;;1.57;71.80;99005.00;5131711;27;20039;-57
2022/02/12 03:24:03;;;;;;;5.07;0.98;;;;;;;1.55;72.15;99019.56;5096719;28;20043;-56
2022/02/12 03:26:29;;;;;;;3.45;0.88;;;;;;;1.61;72.76;99013.53;5131947;27;20040;-56
2022/02/12 03:28:54;;;;;;;6.40;1.13;;;;;;;1.73;72.39;99018.53;5130566;27;20034;-57
2022/02/12 03:31:20;;;;;;;7.75;1.48;;;;;;;1.71;73.33;99012.59;5131526;28;20038;-57
2022/02/12 03:33:46;;;;;;;3.08;1.08;;;;;;;1.65;73.69;99025.44;5113522;28;20061;-54
2022/02/12 03:36:11;;;;;;;2.90;1.05;;;;;;;1.62;74.03;99023.75;5130354;27;20043;-56
2022/02/12 03:38:39;;;;;;;6.00;1.02;;;;;;;1.57;74.19;99010.13;5134674;27;20051;-58
2022/02/12 03:41:06;;;;;;;3.78;0.90;;;;;;;1.66;74.09;99019.47;5135745;27;20126;-56
2022/02/12 03:43:34;;;;;;;3.20;1.20;;;;;;;1.63;73.81;99022.03;5134285;27;20416;-56
2022/02/12 03:46:00;;;;;;;3.22;0.93;;;;;;;1.54;74.15;99001.66;5135947;27;20061;-57
2022/02/12 03:48:27;;;;;;;4.88;1.13;;;;;;;1.60;74.10;99025.50;5135860;27;20035;-56
2022/02/12 03:50:54;;;;;;;2.92;0.90;;;;;;;1.72;73.63;99016.00;5133430;27;20042;-56
2022/02/12 03:53:20;;;;;;;4.22;1.30;;;;;;;1.72;73.95;99019.41;5133188;27;20125;-56
2022/02/12 03:55:46;;;;;;;4.65;1.23;;;;;;;1.79;73.33;99021.03;5079793;28;20504;-56
2022/02/12 03:58:15;;;;;;;4.03;1.17;;;;;;;1.85;73.42;99020.13;5123895;27;20035;-58
2022/02/12 04:00:41;;;;;;;4.55;1.00;;;;;;;1.83;73.32;99009.91;5117369;27;20107;-60
2022/02/12 04:03:07;;;;;;;2.42;0.85;;;;;;;1.78;72.88;99009.09;5116964;27;20047;-57
2022/02/12 04:05:34;;;;;;;3.03;0.90;;;;;;;1.68;73.40;99018.56;5135151;27;20096;-63
2022/02/12 04:08:00;;;;;;;6.07;1.27;;;;;;;1.62;73.10;99018.63;5135119;27;20043;-57
2022/02/12 04:10:26;;;;;;;3.45;1.20;;;;;;;1.67;73.28;99024.56;5134599;27;20398;-55
2022/02/12 04:12:52;;;;;;;3.25;1.00;;;;;;;1.75;73.13;99013.41;5135387;27;20050;-57
2022/02/12 04:15:18;;;;;;;3.88;1.15;;;;;;;1.78;72.46;99014.22;5134958;27;20789;-58
2022/02/12 04:17:44;;;;;;;3.17;1.10;;;;;;;1.73;72.58;99012.59;5135133;27;20035;-54
2022/02/12 04:20:12;;;;;;;4.32;1.10;;;;;;;1.81;72.54;99019.31;5134736;27;20039;-56
2022/02/12 04:22:38;;;;;;;6.55;1.40;;;;;;;1.82;72.21;99017.59;5134693;27;20556;-58
2022/02/12 04:25:07;;;;;;;5.32;1.00;;;;;;;1.80;72.29;99020.19;5134581;27;20493;-53
2022/02/12 04:27:33;;;;;;;2.38;1.00;;;;;;;1.72;72.22;99032.22;5116736;27;20046;-57
2022/02/12 04:29:59;;;;;;;4.00;1.27;;;;;;;1.65;72.66;99036.56;5134949;27;20414;-57
2022/02/12 04:32:25;;;;;;;4.30;1.33;;;;;;;1.51;72.41;99011.94;5134359;27;20088;-57
2022/02/12 04:34:52;;;;;;;2.00;0.95;;;;;;;1.67;72.50;99036.56;5134532;27;20164;-59
2022/02/12 04:37:19;;;;;;;3.63;0.93;;;;;;;1.73;72.15;99041.59;5135048;27;20147;-57
2022/02/12 04:39:45;;;;;;;6.22;1.40;;;;;;;1.64;72.05;99045.09;5115754;27;20039;-56
2022/02/12 04:42:15;;;;;;;2.88;1.17;;;;;;;1.57;72.25;99030.63;5134816;27;20413;-58
2022/02/12 04:44:42;;;;;;;5.15;1.15;;;;;;;1.57;72.07;99034.94;5135043;27;20046;-59
2022/02/12 04:47:08;;;;;;;1.83;1.00;;;;;;;1.59;72.23;99038.31;5116270;27;20092;-56
2022/02/12 04:49:35;;;;;;;6.57;1.58;;;;;;;1.65;72.14;99043.38;5133885;27;20039;-57
2022/02/12 04:52:02;;;;;;;3.55;0.95;;;;;;;1.62;72.37;99044.25;5116181;27;20042;-57
2022/02/12 04:54:27;;;;;;;7.75;1.30;;;;;;;1.56;72.08;99044.31;5116337;27;20103;-58
2022/02/12 04:56:53;;;;;;;3.60;1.45;;;;;;;1.62;72.04;99056.22;5115162;27;20047;-59
2022/02/12 04:59:19;;;;;;;4.55;1.13;;;;;;;1.63;72.23;99055.34;5134204;27;20055;-58
2022/02/12 05:01:44;;;;;;;6.55;1.33;;;;;;;1.58;71.92;99060.50;5134403;27;20074;-57
2022/02/12 05:04:13;;;;;;;6.25;1.20;;;;;;;1.53;72.02;99058.84;5132818;27;20039;-54
2022/02/12 05:06:38;;;;;;;1.73;0.80;;;;;;;1.50;72.08;99061.44;5134345;27;20055;-57
2022/02/12 05:09:04;;;;;;;3.05;1.17;;;;;;;1.46;72.34;99058.06;5133812;27;20070;-59
2022/02/12 05:11:30;;;;;;;3.13;1.35;;;;;;;1.44;72.09;99062.34;5133407;27;20066;-56
2022/02/12 05:13:56;;;;;;;2.85;1.00;;;;;;;1.35;72.17;99072.66;5130889;27;20043;-58
2022/02/12 05:16:21;;;;;;;1.58;1.00;;;;;;;1.35;72.52;99070.09;5133289;27;20043;-56
2022/02/12 05:18:47;;;;;;;4.28;1.00;;;;;;;1.33;71.93;99074.38;5131448;27;20403;-56
2022/02/12 05:21:13;;;;;;;4.32;1.40;;;;;;;1.32;71.91;99080.34;5115986;27;20844;-57
2022/02/12 05:23:38;;;;;;;5.22;1.40;;;;;;;1.34;72.28;99077.78;5134052;27;20058;-55
2022/02/12 05:26:04;;;;;;;3.13;1.10;;;;;;;1.45;71.58;99078.56;5133342;27;20049;-57
2022/02/12 05:28:30;;;;;;;4.90;1.05;;;;;;;1.45;71.90;99073.44;5134248;27;20122;-57
2022/02/12 05:30:56;;;;;;;3.08;0.90;;;;;;;1.23;72.19;99060.78;5133650;27;20095;-55
2022/02/12 05:33:21;;;;;;;4.88;1.10;;;;;;;1.23;72.46;99067.63;5133188;27;20091;-52
2022/02/12 05:35:49;;;;;;;3.72;1.15;;;;;;;1.16;72.61;99068.50;5115308;27;20104;-57
2022/02/12 05:38:15;;;;;;;5.63;0.95;;;;;;;1.13;72.61;99078.78;5114223;27;20052;-55
2022/02/12 05:40:41;;;;;;;2.03;0.93;;;;;;;1.24;72.54;99088.09;5114698;27;20039;-57
2022/02/12 05:43:07;;;;;;;6.22;1.17;;;;;;;1.30;72.71;99091.47;5097735;27;20578;-57
2022/02/12 05:45:33;;;;;;;2.85;0.90;;;;;;;1.27;72.68;99089.78;5133783;27;20031;-55
2022/02/12 05:47:59;;;;;;;4.18;1.20;;;;;;;1.30;72.83;99091.47;5133090;27;20039;-57
2022/02/12 05:50:29;;;;;;;4.03;1.27;;;;;;;1.40;72.36;99091.41;5133491;27;20506;-57
2022/02/12 05:52:56;;;;;;;8.68;1.55;;;;;;;1.40;72.24;99082.88;5125434;27;20432;-56
2022/02/12 05:55:23;;;;;;;5.03;1.38;;;;;;;1.49;72.38;99096.44;5112793;27;20039;-58
2022/02/12 05:57:49;;;;;;;5.57;0.93;;;;;;;1.56;71.94;99099.81;5114103;27;20414;-57
2022/02/12 06:00:15;;;;;;;3.17;1.02;;;;;;;1.52;71.88;99098.97;5113309;27;20205;-55
2022/02/12 06:02:41;;;;;;;1.58;0.90;;;;;;;1.52;71.68;99098.13;5114452;27;20038;-55
2022/02/12 06:05:07;;;;;;;4.18;1.17;;;;;;;1.48;71.69;99092.19;5132585;27;20043;-56
2022/02/12 06:07:33;;;;;;;3.90;1.25;;;;;;;1.63;71.39;99106.59;5113737;27;20510;-58
2022/02/12 06:09:58;;;;;;;3.70;1.08;;;;;;;1.77;71.15;99101.38;5132929;27;20112;-59
2022/02/12 06:12:24;;;;;;;3.28;1.27;;;;;;;1.92;70.64;99096.97;5133090;27;20418;-58
2022/02/12 06:14:50;;;;;;;2.25;0.70;;;;;;;2.03;69.92;99097.72;5123033;27;20048;-59
2022/02/12 06:17:15;;;;;;;4.72;1.50;;;;;;;1.97;69.77;99105.44;5114429;27;20515;-60
2022/02/12 06:19:41;;;;;;;4.60;1.17;;;;;;;1.92;69.45;99094.41;5131987;27;20039;-60
2022/02/12 06:22:07;;;;;;;6.95;1.10;;;;;;;1.88;69.20;99091.88;5122305;27;20077;-60
2022/02/12 06:24:32;;;;;;;4.95;1.20;;;;;;;2.03;69.00;99110.53;5105947;27;20133;-63
2022/02/12 06:26:59;;;;;;;2.20;0.90;;;;;;;2.31;68.55;99123.06;5131582;27;20417;-58
2022/02/12 06:29:25;;;;;;;2.85;1.10;;;;;;;2.54;68.00;99131.38;5135011;27;20031;-59
2022/02/12 06:31:50;;;;;;;1.50;0.90;;;;;;;2.44;66.29;99112.66;5135031;27;20057;-59
2022/02/12 06:34:16;;;;;;;4.75;1.02;;;;;;;2.44;65.29;99122.94;5119488;27;20502;-59
2022/02/12 06:36:42;;;;;;;4.38;1.13;;;;;;;2.51;65.38;99128.84;5131928;27;20091;-59
2022/02/12 06:39:08;;;;;;;2.20;0.95;;;;;;;2.58;65.61;99121.91;5109387;27;20046;-59
2022/02/12 06:41:33;;;;;;;2.30;0.60;;;;;;;2.58;65.42;99130.47;5132266;27;20047;-56
2022/02/12 06:43:59;;;;;;;2.95;0.90;;;;;;;2.58;65.53;99130.47;5109759;28;20122;-57
2022/02/12 06:46:25;;;;;;;1.50;0.55;;;;;;;2.59;65.21;99129.59;5089669;28;20525;-60
2022/02/12 06:48:50;;;;;;;3.22;0.75;;;;;;;2.51;64.51;99133.97;5093759;27;20048;-59
2022/02/12 06:51:17;;;;;;;4.72;1.48;;;;;;;2.54;64.83;99136.50;5096092;27;20117;-58
2022/02/12 06:53:43;;;;;;;2.13;0.90;;;;;;;2.53;64.51;99114.28;5110464;27;20046;-58
2022/02/12 06:56:09;;;;;;;2.13;0.70;;;;;;;2.77;63.57;99144.78;5111650;27;20043;-57
2022/02/12 06:58:36;;;;;;;1.80;0.77;;;;;;;2.84;63.16;99138.69;5131551;27;20047;-58
2022/02/12 07:01:02;;;;;;;4.03;1.13;;;;;;;2.89;62.99;99144.63;5111001;27;20112;-57
2022/02/12 07:03:28;;;;;;;3.72;0.93;;;;;;;2.92;63.00;99144.63;5129440;27;20456;-57
2022/02/12 07:05:54;;;;;;;2.95;0.77;;;;;;;2.83;62.91;99131.88;5131315;27;20049;-59
2022/02/12 07:08:20;;;;;;;1.60;0.68;;;;;;;2.92;62.63;99144.63;5130474;27;20509;-55
2022/02/12 07:10:46;;;;;;;1.85;0.98;;;;;;;2.86;62.43;99128.44;5130017;27;20066;-59
2022/02/12 07:13:13;;;;;;;1.50;0.70;;;;;;;3.01;62.33;99151.34;5125662;27;20372;-60
2022/02/12 07:15:41;;;;;;;3.50;0.90;;;;;;;3.09;61.58;99154.66;5111425;27;20559;-58
2022/02/12 07:18:07;;;;;;;2.13;0.98;;;;;;;3.49;61.03;99151.56;5109881;27;20063;-53
2022/02/12 07:20:33;;;;;;;2.28;0.93;;;;;;;4.00;60.00;99155.88;5058106;27;20285;-57
2022/02/12 07:22:59;;;;;;;1.30;0.70;;;;;;;4.14;58.92;99142.78;5111599;27;20138;-53
2022/02/12 07:25:25;;;;;;;2.78;1.00;;;;;;;4.15;58.96;99157.34;5129096;27;20125;-55
2022/02/12 07:27:55;;;;;;;2.63;0.85;;;;;;;3.99;58.98;99156.75;5130359;27;20031;-58
2022/02/12 07:30:22;;;;;;;1.95;0.93;;;;;;;3.78;59.29;99164.81;5110828;28;20859;-58
2022/02/12 07:32:48;;;;;;;4.93;0.80;;;;;;;3.50;59.02;99164.38;5128897;28;20424;-61
2022/02/12 07:35:14;;;;;;;1.27;0.65;;;;;;;3.35;59.31;99172.28;5128610;28;20050;-59
2022/02/12 07:37:42;;;;;;;2.75;0.82;;;;;;;3.34;59.91;99171.47;5111709;28;20039;-59
2022/02/12 07:40:08;;;;;;;4.32;0.70;;;;;;;3.29;59.93;99178.38;5129638;28;20063;-60
2022/02/12 07:42:35;;;;;;;3.03;1.30;;;;;;;3.22;60.38;99181.03;5094484;28;20460;-60
2022/02/12 07:45:01;;;;;;;3.88;1.02;;;;;;;3.05;60.55;99181.25;5130001;28;20046;-60
2022/02/12 07:47:27;;;;;;;2.55;1.10;;;;;;;2.92;61.09;99187.41;5129404;28;20038;-51
2022/02/12 07:49:52;;;;;;;2.33;0.70;;;;;;;2.88;61.67;99193.41;5110609;28;20039;-52
2022/02/12 07:52:19;;;;;;;2.60;1.30;;;;;;;2.88;62.27;99201.13;5128802;28;20494;-53
2022/02/12 07:54:44;;;;;;;5.45;1.23;;;;;;;2.89;62.60;99211.38;5130457;28;20448;-54
2022/02/12 07:57:10;;;;;;;6.60;1.13;;;;;;;2.89;62.87;99213.94;5128878;28;20042;-55
2022/02/12 07:59:36;;;;;;;5.18;1.52;;;;;;;2.88;62.09;99212.25;5129029;27;20051;-57
2022/02/12 08:02:01;;;;;;;2.10;0.88;;;;;;;2.78;61.84;99236.31;5110697;28;20039;-58
2022/02/12 08:04:28;;;;;;;1.88;0.73;;;;;;;2.69;61.70;99235.56;5110630;28;20054;-58
2022/02/12 08:09:38;;;;;;;3.47;1.10;;;;;;;2.34;61.33;99244.44;5116004;28;20078;-55
2022/02/12 08:12:13;;;;;;;3.35;0.90;;;;;;;2.31;61.10;99251.28;5089365;27;20073;-60
2022/02/12 08:14:43;;;;;;;3.20;1.30;;;;;;;2.27;60.57;99260.72;5134121;27;20035;-58
2022/02/12 08:17:09;;;;;;;2.05;0.70;;;;;;;2.28;60.54;99256.44;5124077;28;20043;-58
2022/02/12 08:19:37;;;;;;;3.05;1.20;;;;;;;2.26;60.09;99255.59;5128270;28;20035;-59
2022/02/12 08:22:04;;;;;;;3.83;1.15;;;;;;;2.27;60.16;99260.72;5129645;28;20047;-55
2022/02/12 08:24:30;;;;;;;2.90;0.80;;;;;;;2.23;59.77;99248.81;5133322;27;20046;-55
2022/02/12 08:26:56;;;;;;;1.95;0.70;;;;;;;2.29;59.61;99265.84;5133615;27;20043;-58
2022/02/12 08:29:24;;;;;;;4.28;2.35;;;;;;;2.37;59.35;99266.63;5116609;27;20363;-57
2022/02/12 08:31:49;;;;;;;2.22;0.80;;;;;;;2.33;58.58;99236.75;5135540;27;20043;-58
2022/02/12 08:34:15;;;;;;;2.50;0.80;;;;;;;2.66;58.01;99280.06;5134897;27;20043;-56
2022/02/12 08:36:41;;;;;;;1.70;1.20;;;;;;;2.82;57.37;99281.63;5134302;27;20130;-57
2022/02/12 08:39:07;;;;;;;6.85;1.08;;;;;;;2.89;56.97;99270.41;5101275;27;20031;-58
2022/02/12 08:41:33;;;;;;;5.50;2.33;;;;;;;2.90;56.45;99277.25;5136931;27;20047;-57
2022/02/12 08:43:59;;;;;;;2.55;0.93;;;;;;;3.07;56.72;99271.09;5134186;27;20083;-59
2022/02/12 08:46:24;;;;;;;6.72;2.55;;;;;;;3.28;56.48;99279.44;5116167;27;20464;-53
2022/02/12 08:48:50;;;;;;;2.33;1.10;;;;;;;3.31;56.40;99266.53;5125403;27;20027;-57
2022/02/12 08:51:16;;;;;;;2.55;1.20;;;;;;;3.39;56.54;99276.72;5081713;27;20072;-60
2022/02/12 08:53:41;;;;;;;2.92;1.38;;;;;;;3.36;56.44;99282.75;5106293;27;20027;-58
2022/02/12 08:56:07;;;;;;;3.17;1.00;;;;;;;3.36;55.96;99276.75;5115881;27;20038;-58
2022/02/12 08:58:34;;;;;;;2.65;1.10;;;;;;;3.32;56.13;99287.94;5135756;27;20536;-57
2022/02/12 09:01:00;;;;;;;3.00;1.33;;;;;;;3.34;56.36;99278.50;5140088;27;20510;-59
2022/02/12 09:03:25;;;;;;;1.08;0.82;;;;;;;3.39;55.82;99285.28;5133881;27;20114;-60
2022/02/12 09:05:51;;;;;;;5.95;1.10;;;;;;;3.40;55.50;99296.41;5117858;27;20043;-60
2022/02/12 09:08:17;;;;;;;3.08;1.10;;;;;;;3.37;55.11;99274.16;5128021;27;20038;-59
2022/02/12 09:10:43;;;;;;;4.97;1.70;;;;;;;3.58;55.00;99298.75;5134296;27;20129;-59
2022/02/12 09:13:10;;;;;;;2.70;1.40;;;;;;;3.73;54.57;99295.13;5133848;27;20043;-56
2022/02/12 09:15:36;;;;;;;4.13;1.83;;;;;;;3.93;53.63;99298.28;5115764;27;20134;-56
2022/02/12 09:18:01;;;;;;;4.60;1.58;;;;;;;4.17;53.60;99292.81;5131097;27;20167;-57
2022/02/12 09:20:27;;;;;;;2.67;1.20;;;;;;;4.35;52.86;99291.66;5132779;27;20053;-57
2022/02/12 09:22:53;;;;;;;3.50;1.42;;;;;;;4.30;52.17;99296.03;5115163;27;20042;-57
2022/02/12 09:25:19;;;;;;;2.05;1.10;;;;;;;4.16;52.25;99287.69;5133381;27;20514;-56
2022/02/12 09:27:44;;;;;;;4.25;0.90;;;;;;;4.17;52.18;99295.38;5132443;27;20095;-57
2022/02/12 09:30:10;;;;;;;4.03;0.80;;;;;;;4.04;51.69;99280.13;5145639;27;20047;-54
2022/02/12 09:32:36;;;;;;;4.00;1.20;;;;;;;3.98;51.97;99287.97;5137920;27;20039;-57
2022/02/12 09:35:02;;;;;;;4.28;1.48;;;;;;;3.98;51.62;99300.81;5134763;27;20088;-57
2022/02/12 09:37:28;;;;;;;3.92;0.90;;;;;;;3.87;51.20;99297.53;5132749;27;20039;-57
2022/02/12 09:39:54;;;;;;;2.20;0.80;;;;;;;3.76;50.50;99290.81;5081511;27;20043;-55
2022/02/12 09:42:20;;;;;;;2.33;0.95;;;;;;;3.70;49.42;99308.03;5133547;27;20049;-58
2022/02/12 09:44:46;;;;;;;4.20;1.23;;;;;;;3.66;49.55;99298.66;5132882;27;20039;-58
2022/02/12 09:47:18;;;;;;;3.25;1.00;;;;;;;4.03;49.96;99310.13;5114867;27;20395;-55
2022/02/12 09:49:44;;;;;;;3.38;1.00;;;;;;;4.38;48.34;99311.34;5132710;27;20053;-55
2022/02/12 09:52:11;;;;;;;4.60;1.20;;;;;;;4.53;47.98;99306.81;5132422;27;20095;-51
2022/02/12 09:54:37;;;;;;;1.75;1.25;;;;;;;5.36;46.49;99312.19;5096880;28;20526;-50
2022/02/12 09:57:06;;;;;;;1.52;0.80;;;;;;;6.13;45.01;99325.22;5077096;28;20045;-54
2022/02/12 09:59:31;;;;;;;5.75;1.52;;;;;;;6.91;43.59;99315.66;5100567;28;20094;-52
2022/02/12 10:01:57;;;;;;;1.80;1.00;;;;;;;7.07;43.29;99325.53;5124574;27;20517;-49
2022/02/12 10:04:25;;;;;;;2.42;0.90;;;;;;;6.78;43.82;99321.13;5132354;27;20035;-50
2022/02/12 10:06:51;;;;;;;2.95;1.10;;;;;;;6.18;43.52;99312.22;5132007;27;20039;-51
2022/02/12 10:09:17;;;;;;;3.83;1.25;;;;;;;5.60;43.46;99325.50;5114709;27;20078;-52
2022/02/12 10:11:45;;;;;;;2.00;0.95;;;;;;;5.23;44.46;99323.63;5114878;27;20418;-54
2022/02/12 10:14:19;;;;;;;1.92;0.98;;;;;;;4.96;44.71;99340.44;5114971;27;20039;-51
2022/02/12 10:16:48;;;;;;;1.10;0.60;;;;;;;4.76;44.03;99339.06;5132940;27;20417;-52
2022/02/12 10:19:14;;;;;;;1.70;0.73;;;;;;;4.80;44.85;99341.56;5132214;27;20043;-57
2022/02/12 10:21:40;;;;;;;2.63;0.88;;;;;;;4.91;44.92;99337.09;5114689;27;20050;-59
2022/02/12 10:24:06;;;;;;;2.92;1.00;;;;;;;5.01;44.55;99337.78;5132803;27;20043;-51
2022/02/12 10:26:36;;;;;;;1.17;0.70;;;;;;;5.03;43.70;99334.28;5132465;27;20035;-56
2022/02/12 10:29:03;;;;;;;2.65;1.00;;;;;;;4.92;43.90;99340.53;5132827;27;20039;-51
2022/02/12 10:31:29;;;;;;;2.15;0.85;;;;;;;4.82;43.97;99338.94;5132457;27;20035;-51
2022/02/12 10:33:54;;;;;;;2.08;0.82;;;;;;;4.74;43.46;99333.94;5132501;27;20100;-51
2022/02/12 10:36:25;;;;;;;2.33;1.13;;;;;;;4.73;43.64;99339.09;5097385;27;20398;-51
2022/02/12 10:38:52;;;;;;;2.17;1.10;;;;;;;4.82;43.49;99326.06;5097820;27;20050;-56
2022/02/12 10:41:20;;;;;;;4.30;1.10;;;;;;;5.14;43.06;99323.78;5097159;27;20054;-52
2022/02/12 10:43:53;;;;;;;2.22;0.60;;;;;;;5.30;42.56;99334.66;5132542;27;20114;-53
2022/02/12 10:46:19;;;;;;;3.50;1.20;;;;;;;5.31;42.17;99328.63;5132292;27;20039;-52
2022/02/12 10:48:48;;;;;;;1.10;0.70;;;;;;;5.37;42.67;99326.78;5132069;27;20039;-52
2022/02/12 10:51:15;;;;;;;1.33;0.50;;;;;;;5.24;42.91;99327.03;5113597;27;20522;-53
2022/02/12 10:53:59;;;;;;;2.60;0.57;;;;;;;5.27;42.82;99327.84;5134150;27;20046;-53
2022/02/12 10:56:45;;;;;;;1.75;0.65;;;;;;;5.67;41.97;99327.06;5132320;27;20074;-54
2022/02/12 10:59:13;;;;;;;1.35;0.60;;;;;;;6.13;40.80;99326.97;5110191;28;20422;-55
2022/02/12 11:01:39;;;;;;;3.08;0.70;;;;;;;6.59;40.78;99334.53;5112799;27;20046;-53
2022/02/12 11:04:08;;;;;;;1.55;1.05;;;;;;;8.41;38.34;99332.94;5113968;27;20472;-56
2022/02/12 11:06:38;;;;;;;1.75;0.90;;;;;;;10.00;36.54;99323.94;5132175;27;20085;-54
2022/02/12 11:09:03;;;;;;;1.40;0.70;;;;;;;11.26;34.41;99336.19;5109309;28;20039;-53
2022/02/12 11:11:33;;;;;;;2.38;0.80;;;;;;;12.00;33.57;99329.47;5122971;27;20043;-52
2022/02/12 11:13:59;;;;;;;2.65;0.93;;;;;;;12.34;33.39;99313.13;5131631;27;20137;-54
2022/02/12 11:16:25;;;;;;;3.33;1.67;;;;;;;12.09;33.87;99334.28;5128274;27;20564;-54
2022/02/12 11:18:52;;;;;;;5.13;1.00;;;;;;;11.04;34.61;99338.91;5112471;27;20043;-54
2022/02/12 11:21:18;;;;;;;4.57;0.93;;;;;;;9.95;35.23;99338.00;5109047;28;20076;-52
2022/02/12 11:24:00;;;;;;;5.68;1.50;;;;;;;8.92;35.48;99351.13;5123959;27;20043;-51
2022/02/12 11:26:25;;;;;;;7.10;3.25;;;;;;;8.16;36.40;99334.56;5129810;27;20042;-53
2022/02/12 11:28:52;;;;;;;3.05;1.50;;;;;;;7.65;36.67;99345.50;5131841;27;20031;-52
2022/02/12 11:31:21;;;;;;;2.53;0.70;;;;;;;7.34;37.69;99356.72;5130287;27;20121;-53
2022/02/12 11:34:03;;;;;;;3.05;0.77;;;;;;;7.13;38.19;99364.16;5079564;28;20042;-51
2022/02/12 11:36:29;;;;;;;2.03;0.70;;;;;;;8.06;37.19;99359.00;5096369;28;20039;-51
2022/02/12 11:39:18;;;;;;;2.20;0.90;;;;;;;9.88;34.76;99355.56;5130489;28;20559;-53
2022/02/12 11:41:49;;;;;;;2.13;1.15;;;;;;;11.20;33.35;99365.13;5131893;28;20538;-55
2022/02/12 11:44:46;;;;;;;1.63;0.70;;;;;;;11.96;30.70;99361.81;5131461;28;20452;-51
2022/02/12 11:47:14;;;;;;;2.95;0.57;;;;;;;12.42;30.47;99366.59;5095987;28;20039;-49